Time;durP1;ratioP1;P1;durP2;ratioP2;P2;SDS_P1;SDS_P2;PMS_P1;PMS_P2;Temp;Humidity;BMP_temperature;BMP_pressure;BME280_temperature;BME280_humidity;BME280_pressure;Samples;Min_cycle;Max_cycle;Signal;HPM_P1;HPM_P2
2022/12/01 05:30:53;;;;;;;;;48.25;36.00;;;;;8.38;67.92;102098.44;5049808;27;45513;-78
2022/12/01 05:33:30;;;;;;;;;42.25;36.50;;;;;8.31;67.84;102098.53;5041410;28;45625;-78
2022/12/01 05:35:57;;;;;;;;;48.25;39.25;;;;;8.26;67.43;102097.66;5036130;28;46232;-79
2022/12/01 05:38:26;;;;;;;;;35.75;33.00;;;;;8.36;67.81;102122.50;5035749;28;45371;-77
2022/12/01 05:40:54;;;;;;;;;47.50;36.75;;;;;8.10;67.72;102080.09;5054230;28;45216;-77
2022/12/01 05:43:23;;;;;;;;;25.75;20.75;;;;;7.79;67.61;102034.28;5053646;28;45359;-78
2022/12/01 05:45:49;;;;;;;;;34.75;33.50;;;;;7.79;67.70;102030.72;5036244;28;46850;-77
2022/12/01 05:48:15;;;;;;;;;42.00;37.50;;;;;8.07;67.78;102082.84;5039809;28;45594;-79
2022/12/01 05:50:41;;;;;;;;;44.75;37.75;;;;;7.93;67.28;102061.66;5042481;28;45461;-78
2022/12/01 05:53:06;;;;;;;;;38.75;38.00;;;;;8.29;67.21;102120.81;5059236;28;45220;-77
2022/12/01 05:55:35;;;;;;;;;45.50;33.25;;;;;8.20;67.42;102103.13;5058568;28;45993;-78
2022/12/01 05:58:01;;;;;;;;;32.00;24.00;;;;;8.29;67.10;102127.03;5057263;28;45434;-78
2022/12/01 06:00:27;;;;;;;;;42.75;36.25;;;;;8.32;67.38;102134.16;5066832;28;45714;-77
2022/12/01 06:02:52;;;;;;;;;35.75;29.75;;;;;8.20;66.97;102100.44;5057245;28;45510;-78
2022/12/01 06:05:18;;;;;;;;;52.50;37.25;;;;;8.25;67.53;102108.41;5040033;28;45560;-78
2022/12/01 06:07:43;;;;;;;;;34.00;28.00;;;;;8.32;67.44;102113.66;5062682;28;45207;-72
2022/12/01 06:10:09;;;;;;;;;41.50;35.00;;;;;8.31;66.97;102103.88;5057637;28;45276;-78
2022/12/01 06:12:36;;;;;;;;;50.75;36.25;;;;;8.41;67.06;102112.66;5040056;28;46104;-78
2022/12/01 06:15:02;;;;;;;;;47.00;39.50;;;;;8.44;66.98;102119.72;5039129;28;46103;-80
2022/12/01 06:17:28;;;;;;;;;39.50;37.00;;;;;8.48;66.76;102126.78;5057639;28;45399;-78
2022/12/01 06:19:54;;;;;;;;;37.50;32.50;;;;;8.51;67.32;102118.72;5040487;28;45563;-77
2022/12/01 06:22:19;;;;;;;;;39.25;36.00;;;;;8.46;66.55;102104.56;5057343;28;45279;-78
2022/12/01 06:24:44;;;;;;;;;40.75;34.75;;;;;8.50;67.00;102103.59;5057584;28;46113;-78
2022/12/01 06:27:10;;;;;;;;;37.00;36.25;;;;;8.50;66.35;102104.50;5057915;28;45414;-76
2022/12/01 06:29:35;;;;;;;;;40.75;34.50;;;;;8.51;65.88;102106.22;5057135;28;45315;-79
2022/12/01 06:32:00;;;;;;;;;48.25;38.50;;;;;8.44;66.17;102109.91;5056757;28;45501;-79
2022/12/01 06:34:26;;;;;;;;;41.00;36.75;;;;;8.47;66.14;102114.34;5038706;28;47013;-75
2022/12/01 06:36:51;;;;;;;;;37.50;36.50;;;;;8.44;66.56;102125.94;5038233;28;45352;-74
2022/12/01 06:39:17;;;;;;;;;41.50;35.50;;;;;8.44;66.01;102123.28;5038326;28;45397;-78
2022/12/01 06:41:42;;;;;;;;;50.00;37.75;;;;;8.43;66.77;102115.28;5038449;28;45525;-76
2022/12/01 06:44:08;;;;;;;;;51.00;39.50;;;;;8.35;66.47;102116.28;5056844;28;45401;-76
2022/12/01 06:46:34;;;;;;;;;45.50;36.50;;;;;8.31;66.47;102111.00;5056870;28;45220;-74
2022/12/01 06:48:59;;;;;;;;;36.00;35.75;;;;;8.43;66.71;102132.19;5057261;28;45229;-76
2022/12/01 06:51:24;;;;;;;;;26.50;25.75;;;;;8.30;66.17;102112.78;5050919;28;45629;-77
2022/12/01 06:53:54;;;;;;;;;42.50;35.25;;;;;8.37;66.01;102137.63;5056722;28;45333;-75
2022/12/01 06:56:20;;;;;;;;;35.50;31.25;;;;;8.35;66.29;102129.63;5037416;28;45556;-76
2022/12/01 06:58:47;;;;;;;;;40.00;32.75;;;;;8.36;66.21;102130.53;5055327;28;45525;-80
2022/12/01 07:01:12;;;;;;;;;45.25;37.00;;;;;8.31;66.21;102132.38;5061598;28;45490;-78
2022/12/01 07:03:38;;;;;;;;;30.25;27.75;;;;;8.31;66.31;102129.72;5054752;28;46098;-76
2022/12/01 07:06:04;;;;;;;;;51.25;37.00;;;;;8.41;66.25;102147.38;5054945;28;45565;-77
2022/12/01 07:08:31;;;;;;;;;41.00;35.50;;;;;8.22;65.93;102122.69;5056047;28;45379;-77
2022/12/01 07:10:58;;;;;;;;;37.00;30.50;;;;;8.33;66.59;102152.84;5057491;28;45355;-76
2022/12/01 07:13:23;;;;;;;;;45.50;36.75;;;;;8.26;66.16;102145.75;5056595;28;46011;-77
2022/12/01 07:15:48;;;;;;;;;41.75;38.00;;;;;8.09;66.55;102120.19;5057217;28;45402;-76
2022/12/01 07:18:14;;;;;;;;;40.00;33.00;;;;;8.32;66.50;102158.22;5057604;28;45338;-75
2022/12/01 07:20:39;;;;;;;;;48.25;41.00;;;;;8.31;66.21;102172.47;5055281;28;45481;-77
2022/12/01 07:23:04;;;;;;;;;30.25;25.75;;;;;8.32;66.39;102174.25;5059386;28;45558;-77
2022/12/01 07:25:30;;;;;;;;;46.50;38.00;;;;;8.30;66.54;102176.91;5058610;28;45371;-78
2022/12/01 07:27:55;;;;;;;;;42.75;35.25;;;;;8.06;66.57;102137.16;5059771;28;45319;-77
2022/12/01 07:30:21;;;;;;;;;44.00;37.25;;;;;8.21;66.16;102154.75;5058302;28;45359;-77
2022/12/01 07:32:46;;;;;;;;;41.75;37.25;;;;;8.26;65.97;102179.63;5055031;28;45449;-78
2022/12/01 07:35:11;;;;;;;;;34.00;33.50;;;;;8.14;66.05;102161.09;5055937;28;45403;-77
2022/12/01 07:37:37;;;;;;;;;42.00;33.00;;;;;8.21;66.02;102182.34;5055510;28;45577;-79
2022/12/01 07:40:02;;;;;;;;;42.00;35.25;;;;;8.19;66.26;102185.94;5055538;28;46025;-78
2022/12/01 07:42:28;;;;;;;;;46.75;35.75;;;;;8.13;66.22;102183.34;5055599;28;45984;-77
2022/12/01 07:44:53;;;;;;;;;37.00;34.25;;;;;8.14;66.11;102204.72;5037809;28;45362;-79
2022/12/01 07:47:18;;;;;;;;;40.75;35.75;;;;;8.10;66.44;102205.66;5055665;28;45255;-76
2022/12/01 07:49:44;;;;;;;;;46.25;36.25;;;;;8.10;66.53;102207.44;5055623;28;45562;-78
2022/12/01 07:52:09;;;;;;;;;47.75;35.75;;;;;8.08;66.61;102203.91;5055360;28;45438;-77
2022/12/01 07:54:34;;;;;;;;;41.50;38.00;;;;;7.99;66.47;102195.09;5055119;28;45375;-77
2022/12/01 07:57:00;;;;;;;;;41.75;36.00;;;;;7.97;66.73;102196.03;5055366;28;45514;-77
2022/12/01 07:59:25;;;;;;;;;44.50;36.25;;;;;8.06;66.49;102224.41;5063412;28;45458;-77
2022/12/01 08:01:50;;;;;;;;;40.25;36.00;;;;;8.03;66.96;102224.44;5039696;28;47313;-78
2022/12/01 08:04:16;;;;;;;;;42.25;30.00;;;;;8.01;67.15;102221.78;5037246;28;45344;-78
2022/12/01 08:06:41;;;;;;;;;29.50;27.50;;;;;7.97;66.96;102220.94;5055297;28;45364;-77
2022/12/01 08:09:06;;;;;;;;;41.00;35.00;;;;;7.95;66.97;102213.84;5036789;28;47508;-77
2022/12/01 08:11:32;;;;;;;;;40.00;37.75;;;;;7.98;67.15;102229.84;5054783;28;45761;-77
2022/12/01 08:13:57;;;;;;;;;41.25;36.25;;;;;8.03;67.42;102229.78;5037103;28;45379;-78
2022/12/01 08:16:23;;;;;;;;;35.00;27.00;;;;;8.03;66.57;102236.00;5055236;28;45383;-77
2022/12/01 08:18:49;;;;;;;;;35.50;32.50;;;;;7.81;67.19;102200.66;5052715;28;45327;-79
2022/12/01 08:21:18;;;;;;;;;36.00;28.00;;;;;8.01;67.05;102240.47;5052226;28;46214;-78
2022/12/01 08:23:43;;;;;;;;;36.75;31.00;;;;;8.01;66.93;102240.47;5055158;28;45484;-79
2022/12/01 08:26:15;;;;;;;;;40.50;33.00;;;;;7.87;66.96;102221.94;5036934;28;45406;-77
2022/12/01 08:28:41;;;;;;;;;32.25;30.50;;;;;8.00;66.92;102238.69;5036895;28;46188;-78
2022/12/01 08:31:18;;;;;;;;;34.50;30.25;;;;;7.92;67.10;102229.88;5054786;28;45432;-76
2022/12/01 08:33:44;;;;;;;;;36.25;33.25;;;;;7.95;66.98;102236.09;5049935;28;45471;-74
2022/12/01 08:36:10;;;;;;;;;41.50;38.25;;;;;8.02;66.67;102239.56;5036947;28;45413;-78
2022/12/01 08:38:35;;;;;;;;;35.00;31.25;;;;;8.02;66.85;102233.34;5055342;28;45373;-77
2022/12/01 08:41:06;;;;;;;;;34.25;30.00;;;;;7.97;67.03;102228.06;5055473;28;45934;-78
2022/12/01 08:43:39;;;;;;;;;34.00;31.00;;;;;7.99;67.42;102234.28;5055051;28;45374;-78
2022/12/01 08:46:05;;;;;;;;;41.00;35.75;;;;;7.87;67.05;102215.72;5056362;28;45455;-78
2022/12/01 08:48:30;;;;;;;;;39.00;36.25;;;;;8.01;66.93;102231.56;5056900;28;45436;-76
2022/12/01 08:51:05;;;;;;;;;31.75;27.75;;;;;8.07;66.75;102245.78;5056630;28;45328;-77
2022/12/01 08:53:32;;;;;;;;;34.50;27.00;;;;;8.03;66.96;102230.66;5055936;28;45363;-76
2022/12/01 08:56:05;;;;;;;;;32.25;31.25;;;;;8.02;67.30;102226.22;5057039;28;45407;-76
2022/12/01 08:58:30;;;;;;;;;33.75;25.75;;;;;8.13;67.23;102244.78;5054783;28;45309;-77
2022/12/01 09:01:08;;;;;;;;;34.25;29.25;;;;;8.14;66.63;102239.44;5064175;28;45452;-78
2022/12/01 09:03:34;;;;;;;;;33.75;29.25;;;;;8.09;66.85;102233.25;5054152;28;45451;-77
2022/12/01 09:06:05;;;;;;;;;28.75;25.75;;;;;8.13;66.57;102248.34;5054964;28;45210;-77
2022/12/01 09:08:31;;;;;;;;;33.25;28.25;;;;;8.06;66.57;102235.97;5054574;28;45536;-78
2022/12/01 09:10:57;;;;;;;;;29.50;27.50;;;;;8.10;66.81;102251.06;5054778;28;46355;-76
2022/12/01 09:13:23;;;;;;;;;30.00;25.75;;;;;8.15;66.94;102243.00;5036713;28;45954;-79
2022/12/01 09:16:12;;;;;;;;;32.75;27.25;;;;;8.14;66.65;102236.78;5056897;28;45481;-79
2022/12/01 09:18:38;;;;;;;;;29.50;26.50;;;;;8.20;67.02;102246.50;5052429;28;45247;-78
2022/12/01 09:21:18;;;;;;;;;31.00;28.75;;;;;8.15;66.75;102238.53;5051096;28;46983;-77
2022/12/01 09:23:44;;;;;;;;;36.50;30.00;;;;;8.25;66.90;102242.84;5055497;28;45424;-77
2022/12/01 09:26:11;;;;;;;;;37.00;28.75;;;;;8.18;66.03;102224.25;5058612;28;45497;-76
2022/12/01 09:28:36;;;;;;;;;32.75;28.50;;;;;8.27;66.24;102235.69;5058890;28;45462;-78
2022/12/01 09:31:07;;;;;;;;;29.75;28.00;;;;;8.29;66.17;102241.03;5058936;28;46511;-78
2022/12/01 09:33:32;;;;;;;;;35.00;32.00;;;;;8.29;66.34;102241.03;5058921;28;45314;-77
2022/12/01 09:35:59;;;;;;;;;38.25;32.75;;;;;8.30;66.24;102241.03;5059289;28;45376;-78
2022/12/01 09:38:25;;;;;;;;;29.50;27.50;;;;;8.28;66.86;102231.25;5059029;28;45505;-78
2022/12/01 09:40:51;;;;;;;;;36.75;30.50;;;;;8.42;66.27;102252.50;5058990;28;45463;-78
2022/12/01 09:43:21;;;;;;;;;38.25;28.25;;;;;8.44;66.52;102242.66;5059707;28;45371;-79
2022/12/01 09:45:53;;;;;;;;;32.25;26.25;;;;;8.48;66.42;102241.72;5061246;28;45408;-79
2022/12/01 09:48:33;;;;;;;;;28.00;24.25;;;;;8.56;66.19;102247.84;5061691;28;45147;-78
2022/12/01 09:50:59;;;;;;;;;30.50;25.50;;;;;8.46;65.47;102224.81;5060472;28;45407;-77
2022/12/01 09:53:27;;;;;;;;;27.00;27.00;;;;;8.65;65.21;102240.59;5042126;28;45578;-78
2022/12/01 09:55:56;;;;;;;;;33.25;29.50;;;;;8.65;65.54;102250.41;5058788;28;45293;-76
2022/12/01 09:58:29;;;;;;;;;34.00;28.75;;;;;8.66;65.54;102247.72;5057235;28;45413;-76
2022/12/01 10:00:56;;;;;;;;;38.00;30.75;;;;;8.62;65.43;102248.63;5048681;28;45312;-78
2022/12/01 10:03:33;;;;;;;;;37.25;27.50;;;;;8.66;65.11;102246.81;5057318;28;45351;-78
2022/12/01 10:06:04;;;;;;;;;27.75;26.00;;;;;8.68;65.01;102245.88;5057903;28;45382;-77
2022/12/01 10:08:35;;;;;;;;;31.00;20.00;;;;;8.66;65.24;102237.00;5058360;28;46398;-77
2022/12/01 10:11:12;;;;;;;;;29.25;26.75;;;;;8.67;64.96;102229.88;5058483;28;46297;-77
2022/12/01 10:13:37;;;;;;;;;27.25;25.00;;;;;8.55;65.00;102206.88;5058446;28;45352;-77
2022/12/01 10:16:10;;;;;;;;;30.75;29.75;;;;;8.71;65.13;102235.13;5058791;28;45713;-77
2022/12/01 10:19:23;;;;;;;;;34.50;28.00;;;;;8.80;64.70;102236.78;5056700;28;45490;-77
2022/12/01 10:22:14;;;;;;;;;29.00;25.25;;;;;8.88;64.98;102240.25;4995287;28;46337;-77
2022/12/01 10:25:00;;;;;;;;;20.00;18.00;;;;;8.98;64.93;102228.50;4995079;28;45584;-77
2022/12/01 10:27:34;;;;;;;;;32.75;26.00;;;;;9.02;64.12;102226.66;5047711;28;45478;-78
2022/12/01 10:30:14;;;;;;;;;39.25;30.25;;;;;9.08;64.32;102229.25;5057359;28;45383;-76
2022/12/01 10:32:53;;;;;;;;;39.75;31.25;;;;;9.14;64.05;102220.22;5056642;28;46231;-77
2022/12/01 10:35:27;;;;;;;;;26.00;20.25;;;;;9.07;63.78;102198.03;5056117;28;45271;-77
2022/12/01 10:38:00;;;;;;;;;28.75;24.50;;;;;9.23;63.29;102220.97;5035041;28;45422;-77
2022/12/01 10:40:27;;;;;;;;;27.00;23.25;;;;;9.18;62.96;102203.22;5056735;28;45182;-77
2022/12/01 10:42:53;;;;;;;;;33.25;27.75;;;;;9.07;63.34;102188.22;5056457;28;45450;-77
2022/12/01 10:45:25;;;;;;;;;26.50;26.50;;;;;9.18;63.16;102197.88;5056388;28;45359;-76
2022/12/01 10:48:06;;;;;;;;;33.25;28.50;;;;;9.26;62.89;102209.31;5056610;28;45399;-76
2022/12/01 10:50:33;;;;;;;;;20.00;16.75;;;;;9.25;63.19;102211.13;5056317;28;45554;-77
2022/12/01 10:52:58;;;;;;;;;23.25;21.00;;;;;9.16;63.10;102188.97;5056379;28;46342;-79
2022/12/01 10:55:42;;;;;;;;;28.25;26.50;;;;;9.27;63.22;102211.09;5056430;28;45285;-78
2022/12/01 10:58:17;;;;;;;;;27.25;27.25;;;;;9.25;63.31;102199.53;5038754;28;45344;-77
2022/12/01 11:00:53;;;;;;;;;27.75;24.75;;;;;9.25;63.15;102188.81;5048896;28;45331;-78
2022/12/01 11:03:21;;;;;;;;;28.50;25.25;;;;;9.20;62.85;102179.97;5056176;28;45565;-78
2022/12/01 11:05:53;;;;;;;;;32.25;29.25;;;;;9.25;62.88;102194.19;5056422;28;45666;-78
2022/12/01 11:08:27;;;;;;;;;27.25;21.25;;;;;9.23;62.72;102190.63;5056290;28;45477;-78
2022/12/01 11:10:55;;;;;;;;;22.25;22.25;;;;;9.22;62.74;102196.91;5056514;28;46729;-76
2022/12/01 11:13:27;;;;;;;;;22.25;19.50;;;;;9.20;62.32;102201.38;5056459;28;45323;-78
2022/12/01 11:15:54;;;;;;;;;22.50;22.50;;;;;9.19;62.02;102195.16;5038404;28;45902;-76
2022/12/01 11:18:21;;;;;;;;;23.75;20.75;;;;;9.08;62.38;102178.41;5057061;28;45359;-78
2022/12/01 11:20:47;;;;;;;;;25.75;22.25;;;;;9.16;62.15;102188.97;5051902;28;45394;-77
2022/12/01 11:23:23;;;;;;;;;29.00;24.25;;;;;9.17;62.54;102186.28;5056290;28;46560;-78
2022/12/01 11:25:57;;;;;;;;;30.75;27.00;;;;;9.23;62.56;102191.53;5055967;28;45403;-77
2022/12/01 11:28:25;;;;;;;;;31.75;27.50;;;;;9.23;62.21;102179.94;5057970;28;45450;-77
2022/12/01 11:30:57;;;;;;;;;33.50;23.25;;;;;9.26;62.45;102180.78;5056330;28;45367;-77
2022/12/01 11:33:27;;;;;;;;;30.75;28.75;;;;;9.19;62.47;102163.03;5038363;28;45482;-78
2022/12/01 11:35:56;;;;;;;;;26.50;26.25;;;;;9.27;62.75;102165.59;5038512;28;45503;-78
2022/12/01 11:38:29;;;;;;;;;32.50;31.50;;;;;9.40;62.15;102177.84;5057478;28;45420;-77
2022/12/01 11:40:57;;;;;;;;;27.50;25.50;;;;;9.26;62.41;102146.00;5058780;28;45373;-78
2022/12/01 11:43:35;;;;;;;;;32.50;27.00;;;;;9.19;62.18;102133.59;5057871;28;46260;-77
2022/12/01 11:46:09;;;;;;;;;32.00;25.25;;;;;9.42;61.95;102179.59;5058165;28;45514;-78
2022/12/01 11:48:35;;;;;;;;;32.25;27.00;;;;;9.22;62.14;102148.72;5055973;28;45247;-77
2022/12/01 11:51:14;;;;;;;;;28.00;27.00;;;;;9.35;61.95;102175.25;5056249;28;45561;-79
2022/12/01 11:53:41;;;;;;;;;28.00;25.00;;;;;9.35;62.08;102175.25;5038566;28;47316;-78
2022/12/01 11:56:22;;;;;;;;;28.50;25.00;;;;;9.35;62.04;102182.41;5059295;28;45293;-79
2022/12/01 11:58:49;;;;;;;;;27.75;26.50;;;;;9.36;61.80;102177.00;5064368;28;45528;-78
2022/12/01 12:01:34;;;;;;;;;25.25;25.00;;;;;9.34;61.80;102173.50;5067510;28;45319;-77
2022/12/01 12:04:23;;;;;;;;;13.25;11.75;;;;;9.35;61.88;102169.91;5059479;28;45386;-78
2022/12/01 12:07:35;;;;;;;;;28.50;25.50;;;;;9.34;61.49;102159.22;5057745;28;45488;-76
2022/12/01 12:10:31;;;;;;;;;28.25;26.25;;;;;9.39;62.01;102160.00;5054296;28;45424;-78
2022/12/01 12:13:14;;;;;;;;;25.50;23.75;;;;;9.42;61.76;102168.88;5055380;28;45289;-77
2022/12/01 12:16:04;;;;;;;;;24.25;23.75;;;;;9.41;61.46;102168.91;5037131;28;48189;-76
2022/12/01 12:18:48;;;;;;;;;28.50;25.50;;;;;9.40;61.62;102165.34;5037772;28;45440;-77
2022/12/01 12:21:33;;;;;;;;;26.75;25.50;;;;;9.37;61.50;102152.00;5052767;28;45236;-76
2022/12/01 12:24:26;;;;;;;;;33.75;26.50;;;;;9.38;61.58;102164.47;5055124;28;45562;-76
2022/12/01 12:27:10;;;;;;;;;32.25;27.50;;;;;9.34;62.01;102157.44;5054967;28;46230;-76
2022/12/01 12:29:50;;;;;;;;;34.50;27.50;;;;;9.35;61.77;102161.88;5054989;28;45338;-78
2022/12/01 12:32:45;;;;;;;;;27.25;23.00;;;;;9.32;62.36;102156.56;5036498;28;45440;-77
2022/12/01 12:35:32;;;;;;;;;31.75;25.75;;;;;9.28;62.03;102154.84;5055377;28;45379;-78
2022/12/01 12:38:18;;;;;;;;;31.50;28.25;;;;;9.11;62.62;102125.72;5055093;28;46714;-77
2022/12/01 12:40:54;;;;;;;;;31.00;26.75;;;;;9.11;62.00;102124.84;5054637;28;46511;-77
2022/12/01 12:43:22;;;;;;;;;28.50;26.25;;;;;9.30;62.28;102157.50;5055041;28;45438;-76
2022/12/01 12:46:03;;;;;;;;;28.00;24.25;;;;;9.29;62.39;102155.72;5036441;28;46135;-78
2022/12/01 12:48:53;;;;;;;;;31.75;27.50;;;;;9.29;62.77;102158.41;5054599;28;45515;-80
2022/12/01 12:51:30;;;;;;;;;37.00;32.25;;;;;9.16;62.35;102131.00;5055279;28;45323;-78
2022/12/01 12:54:10;;;;;;;;;31.75;27.75;;;;;9.26;62.54;102145.09;5055195;28;45549;-78
2022/12/01 12:56:37;;;;;;;;;27.25;26.50;;;;;8.99;62.62;102107.22;5036683;28;46338;-78
2022/12/01 12:59:17;;;;;;;;;27.00;27.00;;;;;9.09;62.66;102132.91;5059445;28;46578;-77
2022/12/01 13:01:49;;;;;;;;;32.75;27.00;;;;;9.10;62.80;102136.47;5056411;28;45481;-78
2022/12/01 13:04:40;;;;;;;;;27.75;25.50;;;;;9.17;62.95;102143.47;5049418;28;45463;-76
2022/12/01 13:07:27;;;;;;;;;24.25;23.75;;;;;9.12;62.41;102129.28;5042483;28;46164;-77
2022/12/01 13:10:05;;;;;;;;;26.25;23.75;;;;;8.97;62.59;102103.69;5054550;28;45974;-77
2022/12/01 13:12:36;;;;;;;;;28.25;26.25;;;;;9.07;63.06;102128.50;5035279;28;45466;-77
2022/12/01 13:15:15;;;;;;;;;30.00;25.25;;;;;9.16;63.13;102140.81;5054234;28;45343;-77
2022/12/01 13:18:03;;;;;;;;;31.75;25.75;;;;;8.84;63.42;102091.47;5035983;28;46735;-77
2022/12/01 13:20:33;;;;;;;;;30.25;30.25;;;;;9.12;63.14;102137.31;5049016;28;46356;-77
2022/12/01 13:23:00;;;;;;;;;30.50;26.50;;;;;9.03;63.02;102135.66;5054414;28;45491;-78
2022/12/01 13:25:34;;;;;;;;;25.50;23.00;;;;;8.95;63.05;102126.00;5054372;28;45609;-77
2022/12/01 13:28:03;;;;;;;;;28.50;22.75;;;;;8.97;62.98;102127.75;5053881;28;45482;-76
2022/12/01 13:30:28;;;;;;;;;27.50;23.75;;;;;8.85;63.05;102116.38;5036008;28;46978;-77
2022/12/01 13:33:01;;;;;;;;;27.00;23.25;;;;;8.87;62.92;102114.56;5053949;28;45398;-79
2022/12/01 13:35:28;;;;;;;;;29.00;24.50;;;;;8.96;63.09;102128.66;5037296;28;45464;-78
2022/12/01 13:38:14;;;;;;;;;33.25;27.75;;;;;8.90;63.16;102118.09;5053656;28;45795;-78
2022/12/01 13:40:40;;;;;;;;;25.75;22.25;;;;;9.01;63.16;102128.59;5054153;28;45504;-78
2022/12/01 13:43:20;;;;;;;;;29.75;27.75;;;;;8.91;62.94;102084.19;5054771;28;45578;-78
2022/12/01 13:45:47;;;;;;;;;24.75;24.75;;;;;9.06;63.45;102121.38;5054328;28;45451;-78
2022/12/01 13:48:49;;;;;;;;;26.75;24.00;;;;;9.04;63.20;102108.00;5053900;28;45371;-78
2022/12/01 13:51:15;;;;;;;;;31.00;26.25;;;;;9.11;63.10;102116.81;5054450;28;46588;-77
2022/12/01 13:54:23;;;;;;;;;23.50;17.75;;;;;9.12;63.12;102107.88;5053735;28;45447;-77
2022/12/01 13:57:00;;;;;;;;;27.50;27.00;;;;;9.00;63.16;102092.94;5054203;28;45332;-77
2022/12/01 14:00:03;;;;;;;;;31.75;27.75;;;;;9.15;62.77;102106.94;5062352;28;45437;-77
2022/12/01 14:02:31;;;;;;;;;28.75;26.25;;;;;9.14;63.06;102099.81;5053847;28;45319;-79
2022/12/01 14:05:38;;;;;;;;;29.50;27.75;;;;;9.04;63.49;102097.31;5037125;28;45336;-77
2022/12/01 14:08:21;;;;;;;;;37.50;32.75;;;;;8.90;63.45;102069.06;4970477;28;46183;-78
2022/12/01 14:10:58;;;;;;;;;34.25;27.00;;;;;9.05;62.92;102098.19;5042949;28;47210;-78
2022/12/01 14:13:25;;;;;;;;;26.50;22.75;;;;;8.83;63.27;102070.97;5057236;28;45267;-77
2022/12/01 14:15:59;;;;;;;;;32.00;26.25;;;;;9.04;62.63;102101.78;5058723;28;45457;-78
2022/12/01 14:18:39;;;;;;;;;25.25;22.50;;;;;8.78;62.73;102063.91;5059886;28;45352;-77
2022/12/01 14:21:10;;;;;;;;;25.75;25.75;;;;;8.93;63.38;102093.94;5057225;28;45309;-77
2022/12/01 14:23:56;;;;;;;;;23.75;22.25;;;;;8.98;63.05;102093.88;5044389;28;46315;-77
2022/12/01 14:26:24;;;;;;;;;23.75;21.50;;;;;8.97;62.85;102101.00;5044592;28;45443;-79
2022/12/01 14:28:58;;;;;;;;;27.75;24.50;;;;;8.95;62.77;102096.59;5041852;28;45440;-78
2022/12/01 14:31:45;;;;;;;;;30.50;24.25;;;;;8.90;62.77;102104.72;5058697;28;45331;-79
2022/12/01 14:34:18;;;;;;;;;25.75;23.75;;;;;8.90;63.36;102103.81;5039060;28;48067;-77
2022/12/01 14:36:48;;;;;;;;;25.75;22.75;;;;;8.89;63.00;102104.72;5038880;28;45423;-78
2022/12/01 14:39:18;;;;;;;;;22.25;18.25;;;;;8.82;62.79;102095.06;5056557;28;45378;-77
2022/12/01 14:41:48;;;;;;;;;24.75;24.00;;;;;8.84;63.09;102101.28;5057234;28;45439;-77
2022/12/01 14:44:31;;;;;;;;;24.50;22.75;;;;;8.81;62.58;102102.19;5056236;28;46653;-77
2022/12/01 14:47:14;;;;;;;;;25.75;21.50;;;;;8.79;62.44;102104.00;5056988;28;45311;-75
2022/12/01 14:49:49;;;;;;;;;20.50;18.00;;;;;8.80;62.61;102105.78;5038716;28;45430;-76
2022/12/01 14:52:32;;;;;;;;;22.00;20.50;;;;;8.79;61.96;102095.97;5038189;28;46439;-78
2022/12/01 14:55:03;;;;;;;;;26.75;19.50;;;;;8.77;62.58;102099.56;5055248;28;46025;-76
2022/12/01 14:57:48;;;;;;;;;22.25;21.50;;;;;8.75;62.11;102094.28;5056702;28;45446;-76
2022/12/01 15:00:20;;;;;;;;;21.00;17.50;;;;;8.72;62.16;102089.88;5050530;28;45560;-78
2022/12/01 15:02:55;;;;;;;;;21.75;19.75;;;;;8.77;62.31;102096.91;5056436;28;45546;-79
2022/12/01 15:05:24;;;;;;;;;23.50;21.00;;;;;8.78;61.96;102093.31;5056560;28;45514;-76
2022/12/01 15:07:54;;;;;;;;;21.25;21.25;;;;;8.78;62.01;102098.69;5056441;28;45323;-77
2022/12/01 15:10:21;;;;;;;;;24.75;20.00;;;;;8.78;62.10;102099.56;5056261;28;45416;-78
2022/12/01 15:12:48;;;;;;;;;25.25;21.00;;;;;8.80;62.26;102094.19;5055121;28;45552;-79
2022/12/01 15:15:15;;;;;;;;;23.00;20.00;;;;;8.71;62.52;102081.84;5056475;28;46134;-77
2022/12/01 15:17:40;;;;;;;;;23.00;19.75;;;;;8.77;62.41;102092.44;5056287;28;45516;-79
2022/12/01 15:20:36;;;;;;;;;23.00;23.00;;;;;8.73;62.52;102077.38;5051971;28;45403;-78
2022/12/01 15:23:11;;;;;;;;;29.25;23.00;;;;;8.50;62.44;102045.69;5055254;28;45580;-77
2022/12/01 15:25:41;;;;;;;;;20.00;20.00;;;;;8.78;62.27;102090.66;5055939;28;46189;-77
2022/12/01 15:28:17;;;;;;;;;23.00;21.50;;;;;8.78;62.99;102086.19;5039413;28;45297;-78
2022/12/01 15:30:45;;;;;;;;;26.75;22.75;;;;;8.53;62.69;102059.00;5038117;28;45351;-77
2022/12/01 15:33:36;;;;;;;;;25.25;22.50;;;;;8.77;63.12;102094.22;5056222;28;45327;-77
2022/12/01 15:36:02;;;;;;;;;28.00;22.75;;;;;8.77;62.64;102091.56;5046104;28;46055;-77
2022/12/01 15:38:31;;;;;;;;;24.50;20.50;;;;;8.74;62.80;102087.16;5056241;28;45532;-78
2022/12/01 15:40:59;;;;;;;;;27.25;26.50;;;;;8.76;62.74;102095.16;5056296;28;45397;-78
2022/12/01 15:43:31;;;;;;;;;30.25;24.25;;;;;8.70;62.59;102090.78;5057089;28;45401;-79
2022/12/01 15:46:09;;;;;;;;;29.00;27.25;;;;;8.52;62.92;102051.00;5038277;28;46457;-77
2022/12/01 15:48:35;;;;;;;;;31.25;25.50;;;;;8.72;63.57;102086.31;5054638;28;45442;-79
2022/12/01 15:51:25;;;;;;;;;31.50;28.25;;;;;8.68;63.04;102082.78;5055453;28;45459;-77
2022/12/01 15:53:56;;;;;;;;;25.25;23.50;;;;;8.74;63.36;102097.84;5054633;28;45550;-77
2022/12/01 15:56:28;;;;;;;;;26.75;23.00;;;;;8.61;63.35;102080.25;5056057;28;45998;-77
2022/12/01 15:59:14;;;;;;;;;26.25;25.25;;;;;8.71;62.98;102101.47;5060957;28;45353;-79
2022/12/01 16:01:41;;;;;;;;;26.25;25.75;;;;;8.70;63.23;102099.69;5058266;28;45449;-77
2022/12/01 16:04:25;;;;;;;;;36.75;34.00;;;;;8.68;63.74;102105.97;5036269;28;47243;-77
2022/12/01 16:07:05;;;;;;;;;25.00;22.25;;;;;8.68;63.93;102100.63;5053501;28;45411;-79
2022/12/01 16:09:35;;;;;;;;;34.75;25.50;;;;;8.62;64.31;102096.25;5053438;28;45358;-78
2022/12/01 16:12:15;;;;;;;;;25.00;22.00;;;;;8.71;63.70;102105.91;5055770;28;45455;-77
2022/12/01 16:14:48;;;;;;;;;22.75;22.75;;;;;8.62;63.85;102088.25;5051298;28;45775;-78
2022/12/01 16:17:16;;;;;;;;;29.50;25.25;;;;;8.74;64.13;102113.91;5051523;28;45552;-78
2022/12/01 16:19:42;;;;;;;;;33.75;27.00;;;;;8.76;64.19;102105.88;5048772;28;45588;-77
2022/12/01 16:22:10;;;;;;;;;35.75;26.25;;;;;8.78;64.17;102109.38;5037112;28;45308;-78
2022/12/01 16:24:52;;;;;;;;;28.25;28.25;;;;;8.64;64.22;102081.09;5054583;28;45872;-78
2022/12/01 16:27:26;;;;;;;;;24.00;24.00;;;;;8.82;63.86;102108.44;5055306;28;45533;-79
2022/12/01 16:29:51;;;;;;;;;30.00;28.00;;;;;8.83;64.04;102107.53;5055537;28;45503;-76
2022/12/01 16:32:31;;;;;;;;;30.00;25.25;;;;;8.75;64.05;102083.59;5037723;28;45275;-78
2022/12/01 16:34:56;;;;;;;;;28.00;27.00;;;;;8.62;64.61;102063.31;5055815;28;45216;-77
2022/12/01 16:37:25;;;;;;;;;23.00;21.25;;;;;8.85;64.30;102094.97;5059298;28;45510;-78
2022/12/01 16:39:50;;;;;;;;;30.00;29.25;;;;;8.69;64.34;102067.63;5056773;28;45157;-77
2022/12/01 16:42:21;;;;;;;;;25.50;25.25;;;;;8.69;64.07;102079.22;5059307;28;45318;-79
2022/12/01 16:44:48;;;;;;;;;31.50;27.00;;;;;8.68;64.18;102063.19;5059921;28;45520;-77
2022/12/01 16:47:15;;;;;;;;;31.75;26.75;;;;;8.86;64.55;102091.41;5060970;28;46704;-76
2022/12/01 16:49:41;;;;;;;;;33.00;30.25;;;;;8.71;64.74;102061.34;5063641;28;45518;-76
2022/12/01 16:52:06;;;;;;;;;32.00;27.25;;;;;8.94;64.30;102094.81;5063343;28;45391;-80
2022/12/01 16:54:31;;;;;;;;;33.25;30.25;;;;;8.97;64.19;102098.34;5062591;28;45562;-78
2022/12/01 16:56:57;;;;;;;;;25.75;25.75;;;;;8.89;64.49;102089.56;5058338;28;46114;-76
2022/12/01 16:59:25;;;;;;;;;34.75;29.75;;;;;8.93;64.58;102093.94;5065409;28;45374;-76
2022/12/01 17:01:50;;;;;;;;;29.25;27.50;;;;;8.99;64.38;102101.88;5041240;28;45419;-76
2022/12/01 17:04:15;;;;;;;;;34.25;28.75;;;;;8.90;64.33;102085.09;5058602;28;45506;-78
2022/12/01 17:06:41;;;;;;;;;32.00;26.25;;;;;8.99;64.99;102101.00;5057228;28;45407;-79
2022/12/01 17:09:06;;;;;;;;;33.00;27.00;;;;;8.84;64.98;102072.75;5038301;28;45319;-79